Lund, Idaho
Current Conditions -  °F | °C
As of 7:53 AM on Thursday 30 Oct 2014 (Local Time) from KPIH Reporting Station
Scattered Clouds Scattered Clouds  
Wind Chill: 33°   Ceiling: Unl
Heat Index: 37°   Visibility: 10mi
Dew Point: 30°   Wind: 5mph
Humidity: 76%   Direction: 20°NNE
Pressure: 30.27"   Gusts: NA
Location:  42.811°N, 111.938°W
Report Text: KPIH 301353Z 02004KT 10SM SCT100 03/M01 A3027 RMK AO2 SLP245 T00281011
Loading
Personal Weather Stations






























Interactive Weather Map
Tropical Storm Tracking
New forecast layout! Learn more

10-Day Weather Forecast

Advertisements
Track Severe Weather on mobile